Aeroporto :
LOGIN :

Iscrizione | Disclaimer

   EN    FR    IT 

 










Sommario :    VFR   VFR Marginale   IFR   IFR Intensivo   IFR Molto Intensivo
Visibilità : 
Base nubi : 
>= 8 km
>= 3000ft
5 / 8 km
1000 / 3000 ft
1500m / 5 km
500 / 1000 ft
800 / 1500m
200 / 500 ft
< 800m
< 200 ft
Simboli :   Temporali  Nebbia  Neve Forte  Precipitazioni Forti  Vento > 20 kt
SIGMETs :   Varie  Temporali  Ghiacco  Turbolenza  Onda orograficha  Ceneri Vulcaniche






- Altitudine del aeroporto : 270 ft
- Codice IATA : OXF


EGTK - Oxford (Kidlington)

ULTIMO METAR :
  • 131150Z 23006KT 9999 SCT018 09/05 Q0999

METARs OBSOLETI :
  • 131120Z 23006KT 190V260 9999 FEW019 08/05 Q0999
  • 131050Z 22005KT 9999 FEW016 07/05 Q1000
  • 131020Z 23008KT 200V260 9999 FEW016 07/05 Q1000
  • 130950Z 22006KT CAVOK 05/05 Q1000
  • 130920Z 24007KT CAVOK 05/05 Q1001
  • 130850Z 25006KT CAVOK 04/04 Q1001

TAF TAF EGTK
Valido dal 13 a 12 ore il 13 a 21 ore UTC


131057Z 1312/1321 24005KT 9999 FEW035
BECMG 1312/1315 18010KT
BECMG 1315/1318 12008KT



MetMap, La meteo Aeronautica in un colpo d'occhio ! - Copyright ORBIFLY Dicembre 2007 - Disclaimer

ORBIFLY MET'MAP TEAM :

Programmazione e sviluppo : Alexandra Zaïnal
Concezione e sviluppo : Baudouin d'Aumeries
Co-Programmazione e sviluppo : Marc-Olivier Méhu
Supporto tecnico e logistico : Manuel Goepfert
Aiuto per la traduzione : Arnaldo La Scala

Contatto : metmap@orbifly.com




FONTI E CREDITI :

   NOAA